Flight Track Log - Related Links

Times and Time Zones

All times are in EDT time to prevent confusion due to time zone crossing. See the DAL2033 flight status page for this flight to view local times or setup timezone preferences in your user account.

Time Position Orientation Groundspeed Altitude Reporting Facility
EDT Latitude Longitude Course Direction KTS MPH feet Rate Location/Type
Sun 06:12:16 PM 42.8147 -73.8467 329° Northwest 233 268 3,100  Level Boston Center
Sun 06:13:26 PM 42.8094 -73.9372 265° West 244 281 6,600 3,508 Climbing Boston Center
Sun 06:14:26 PM 42.8078 -74.0533 269° West 252 290 10,700 2,900 Climbing Boston Center
Sun 06:15:26 PM 42.8044 -74.1522 267° West 264 304 12,400 1,950 Climbing Boston Center
Sun 06:16:00 PM 42.3882 -74.3049 198° South  Level Estimated
Sun 06:16:26 PM 42.8067 -74.2683 272° West 297 342 14,600  Level Boston Center
Sun 06:17:26 PM 42.8108 -74.4014 272° West 333 383 16,400 2,100 Climbing Boston Center
Sun 06:18:26 PM 42.8106 -74.5261 270° West 345 397 18,800 1,800 Climbing Boston Center
Sun 06:19:26 PM 42.7472 -74.5775 211° Southwest 294 338 20,000 1,450 Climbing Boston Center
Sun 06:20:26 PM 42.6550 -74.4925 146° Southeast 259 298 21,700 1,450 Climbing Boston Center
Sun 06:21:26 PM 42.5528 -74.3792 141° Southeast 326 375 22,900 1,350 Climbing Boston Center
Sun 06:22:26 PM 42.4606 -74.2778 141° Southeast 386 444 24,400 1,600 Climbing Boston Center
Sun 06:23:26 PM 42.3661 -74.1794 142° Southeast 420 483 26,100 1,500 Climbing Boston Center
Sun 06:24:26 PM 42.2719 -74.0758 141° Southeast 433 498 27,400 950 Climbing Boston Center
Sun 06:25:26 PM 42.1681 -74.0422 167° South 397 457 28,000 300 Climbing Boston Center
Sun 06:26:26 PM 42.0681 -74.0481 182° South 361 415 28,000  Level Boston Center
Sun 06:28:32 PM 41.8614 -74.0575 182° South 371 427 28,000  Level New York Center
Sun 06:29:29 PM 41.7653 -74.0639 183° South 366 421 28,000  Level New York Center
Sun 06:30:30 PM 41.6653 -74.0700 183° South 366 421 28,000  Level New York Center
Sun 06:31:31 PM 41.5778 -74.0711 181° South 361 415 28,000  Level New York Center
Sun 06:32:31 PM 41.4756 -74.0744 181° South 361 415 28,000  Level New York Center
Sun 06:33:30 PM 41.3756 -74.0833 184° South 367 422 28,000  Level New York Center
Sun 06:34:30 PM 41.2817 -74.0869 182° South 367 422 28,000  Level New York Center
Sun 06:35:31 PM 41.1739 -74.1394 200° South 359 413 28,000 -49 Level New York Center
Sun 06:36:32 PM 41.1133 -74.2192 225° Southwest 338 389 27,900  Descending New York Center
Sun 06:37:29 PM 41.0522 -74.3178 231° Southwest 338 389 28,000 50 Climbing New York Center
Sun 06:38:31 PM 40.9950 -74.4164 232° Southwest 346 398 28,000  Level New York Center
Sun 06:39:32 PM 40.9314 -74.5147 229° Southwest 346 398 28,000  Level New York Center
Sun 06:40:29 PM 40.8719 -74.6128 231° Southwest 351 404 28,000  Level New York Center
Sun 06:41:29 PM 40.8106 -74.7053 229° Southwest 351 404 28,000  Level New York Center
Sun 06:42:30 PM 40.7467 -74.8086 231° Southwest 351 404 28,000  Level New York Center
Sun 06:43:30 PM 40.6828 -74.9086 230° Southwest 356 410 28,000  Level New York Center
Sun 06:44:30 PM 40.6211 -75.0061 230° Southwest 356 410 28,000  Level New York Center
Sun 06:45:31 PM 40.5569 -75.1061 230° Southwest 356 410 28,000  Level New York Center
Sun 06:46:31 PM 40.4928 -75.2056 230° Southwest 362 417 28,000  Level New York Center
Sun 06:47:32 PM 40.4286 -75.3050 230° Southwest 367 422 28,000  Level New York Center
Sun 06:48:29 PM 40.3622 -75.4044 229° Southwest 362 417 28,000  Level New York Center
Sun 06:49:30 PM 40.3000 -75.5008 230° Southwest 362 417 28,000  Level New York Center
Sun 06:50:31 PM 40.2289 -75.6103 230° Southwest 368 423 28,000  Level New York Center
Sun 06:51:29 PM 40.1644 -75.7089 229° Southwest 368 423 28,000  Level New York Center
Sun 06:52:30 PM 40.1017 -75.8103 231° Southwest 363 418 28,000  Level New York Center
Sun 06:53:31 PM 40.0472 -75.9150 236° Southwest 363 418 28,000  Level New York Center
Sun 06:54:31 PM 39.9944 -76.0222 237° Southwest 358 412 28,000  Level New York Center
Sun 06:55:29 PM 39.9317 -76.1231 231° Southwest 363 418 28,000  Level New York Center
Sun 06:56:29 PM 39.8606 -76.2175 226° Southwest 363 418 28,000  Level New York Center
Sun 06:57:29 PM 39.8069 -76.2919 227° Southwest 363 418 28,000  Level New York Center
Sun 06:59:07 PM 39.6917 -76.4544 227° Southwest 344 396 28,000  Level Washington Center
Sun 07:00:04 PM 39.6267 -76.5372 224° Southwest 344 396 28,000  Level Washington Center
Sun 07:01:05 PM 39.5569 -76.6306 226° Southwest 350 403 28,000  Level Washington Center
Sun 07:02:06 PM 39.4917 -76.7236 228° Southwest 355 409 28,000  Level Washington Center
Sun 07:03:06 PM 39.4242 -76.8167 227° Southwest 355 409 28,000  Level Washington Center
Sun 07:04:04 PM 39.3544 -76.9067 225° Southwest 355 409 28,000  Level Washington Center
Sun 07:05:04 PM 39.2867 -76.9994 227° Southwest 360 414 28,000  Level Washington Center
Sun 07:06:05 PM 39.2189 -77.0944 227° Southwest 360 414 28,000  Level Washington Center
Sun 07:07:05 PM 39.1508 -77.1869 227° Southwest 365 420 28,000  Level Washington Center
Sun 07:08:06 PM 39.0828 -77.2789 226° Southwest 365 420 28,000  Level Washington Center
Sun 07:09:04 PM 39.0128 -77.3736 226° Southwest 365 420 28,000  Level Washington Center
Sun 07:10:04 PM 38.9447 -77.4653 226° Southwest 365 420 28,000  Level Washington Center
Sun 07:11:06 PM 38.8722 -77.5647 227° Southwest 365 420 28,000  Level Washington Center
Sun 07:12:06 PM 38.8083 -77.6483 226° Southwest 365 420 28,000  Level Washington Center
Sun 07:13:04 PM 38.7314 -77.7472 225° Southwest 365 420 28,000  Level Washington Center
Sun 07:14:04 PM 38.6608 -77.8408 226° Southwest 365 420 28,000  Level Washington Center
Sun 07:15:04 PM 38.5986 -77.9372 230° Southwest 365 420 28,000  Level Washington Center
Sun 07:16:05 PM 38.5383 -78.0417 234° Southwest 365 420 28,000  Level Washington Center
Sun 07:17:04 PM 38.4778 -78.1431 233° Southwest 365 420 28,000  Level Washington Center
Sun 07:18:04 PM 38.4192 -78.2444 234° Southwest 365 420 28,000  Level Washington Center
Sun 07:19:05 PM 38.3606 -78.3483 234° Southwest 365 420 28,000  Level Washington Center
Sun 07:20:05 PM 38.2997 -78.4492 232° Southwest 366 421 28,000  Level Washington Center
Sun 07:21:06 PM 38.2431 -78.5500 234° Southwest 366 421 28,000  Level Washington Center
Sun 07:22:04 PM 38.1867 -78.6403 232° Southwest 366 421 28,000  Level Washington Center
Sun 07:23:03 PM 38.1278 -78.7436 234° Southwest 366 421 28,000  Level Washington Center
Sun 07:24:04 PM 38.0644 -78.8464 232° Southwest 366 421 28,000  Level Washington Center
Sun 07:25:04 PM 37.9947 -78.9592 232° Southwest 366 421 28,000  Level Washington Center
Sun 07:26:05 PM 37.9311 -79.0617 232° Southwest 371 427 28,000  Level Washington Center
Sun 07:27:05 PM 37.8658 -79.1614 230° Southwest 371 427 28,000  Level Washington Center
Sun 07:28:06 PM 37.7939 -79.2603 227° Southwest 377 434 28,000  Level Washington Center
Sun 07:29:04 PM 37.7308 -79.3467 227° Southwest 377 434 28,000  Level Washington Center
Sun 07:30:03 PM 37.6503 -79.4528 226° Southwest 387 445 28,000  Level Washington Center
Sun 07:31:04 PM 37.5869 -79.5414 228° Southwest 382 440 28,000  Level Washington Center
Sun 07:32:05 PM 37.5081 -79.6497 227° Southwest 388 447 28,000  Level Washington Center
Sun 07:33:06 PM 37.4425 -79.7378 227° Southwest 388 447 28,000  Level Washington Center
Sun 07:35:10 PM 37.2792 -79.9622 228° Southwest 395 455 28,000  Level Atlanta Center
Sun 07:36:10 PM 37.2072 -80.0572 226° Southwest 373 429 28,000  Level Atlanta Center
Sun 07:37:10 PM 37.1414 -80.1464 227° Southwest 371 427 28,000  Level Atlanta Center
Sun 07:38:10 PM 37.0694 -80.2461 228° Southwest 377 434 28,000  Level Atlanta Center
Sun 07:39:10 PM 36.9933 -80.3461 226° Southwest 382 440 28,000  Level Atlanta Center
Sun 07:40:10 PM 36.9131 -80.4536 227° Southwest 382 440 28,000  Level Atlanta Center
Sun 07:41:10 PM 36.8408 -80.5528 228° Southwest 387 445 28,000  Level Atlanta Center
Sun 07:42:10 PM 36.7644 -80.6519 226° Southwest 387 445 28,000  Level Atlanta Center
Sun 07:43:10 PM 36.6919 -80.7508 228° Southwest 380 437 28,000  Level Atlanta Center
Sun 07:44:10 PM 36.6175 -80.8522 228° Southwest 387 445 28,000  Level Atlanta Center
Sun 07:45:10 PM 36.5428 -80.9483 226° Southwest 392 451 28,000  Level Atlanta Center
Sun 07:46:10 PM 36.4683 -81.0519 228° Southwest 398 458 28,000  Level Atlanta Center
Sun 07:47:10 PM 36.3914 -81.1528 227° Southwest 398 458 28,000  Level Atlanta Center
Sun 07:48:10 PM 36.3167 -81.2533 227° Southwest 404 465 28,000  Level Atlanta Center
Sun 07:49:10 PM 36.2394 -81.3539 226° Southwest 404 465 28,000  Level Atlanta Center
Sun 07:50:10 PM 36.1625 -81.4542 226° Southwest 404 465 28,000  Level Atlanta Center
Sun 07:51:10 PM 36.0933 -81.5436 226° Southwest 404 465 28,000  Level Atlanta Center
Sun 07:52:10 PM 36.0161 -81.6411 226° Southwest 404 465 28,000  Level Atlanta Center
Sun 07:53:10 PM 35.9386 -81.7381 225° Southwest 399 459 28,000  Level Atlanta Center
Sun 07:54:10 PM 35.8653 -81.8375 228° Southwest 399 459 28,000  Level Atlanta Center
Sun 07:55:10 PM 35.7878 -81.9344 225° Southwest 399 459 28,000  Level Atlanta Center
Sun 07:56:10 PM 35.7122 -82.0336 227° Southwest 404 465 28,000  Level Atlanta Center
Sun 07:57:10 PM 35.6367 -82.1275 225° Southwest 399 459 28,000  Level Atlanta Center
Sun 07:58:10 PM 35.5608 -82.2261 227° Southwest 399 459 28,000  Level Atlanta Center
Sun 07:59:10 PM 35.4831 -82.3222 225° Southwest 399 459 28,000 -50 Level Atlanta Center
Sun 08:00:10 PM 35.4072 -82.4181 226° Southwest 399 459 27,900 -900 Descending Atlanta Center
Sun 08:01:10 PM 35.3250 -82.5217 226° Southwest 399 459 26,200 -1,500 Descending Atlanta Center
Sun 08:02:10 PM 35.2550 -82.6069 225° Southwest 399 459 24,900 -1,100 Descending Atlanta Center
Sun 08:03:10 PM 35.1789 -82.7022 226° Southwest 399 459 24,000 -450 Descending Atlanta Center
Sun 08:04:10 PM 35.1006 -82.7972 225° Southwest 394 453 24,000  Level Atlanta Center
Sun 08:05:10 PM 35.0264 -82.8897 226° Southwest 389 448 24,000  Level Atlanta Center
Sun 08:06:10 PM 34.9522 -82.9844 226° Southwest 384 442 24,000  Level Atlanta Center
Sun 08:07:10 PM 34.8756 -83.0717 223° Southwest 379 436 24,000  Level Atlanta Center
Sun 08:08:10 PM 34.8033 -83.1686 228° Southwest 385 443 24,000 -350 Level Atlanta Center
Sun 08:09:10 PM 34.7267 -83.2578 224° Southwest 385 443 23,300 -1,250 Descending Atlanta Center
Sun 08:10:10 PM 34.6458 -83.3394 220° Southwest 385 443 21,500 -2,000 Descending Atlanta Center
Sun 08:11:10 PM 34.5628 -83.4183 218° Southwest 379 436 19,300 -2,050 Descending Atlanta Center
Sun 08:12:10 PM 34.4714 -83.5019 217° Southwest 379 436 17,400 -1,800 Descending Atlanta Center
Sun 08:13:10 PM 34.3883 -83.5756 216° Southwest 379 436 15,700 -1,750 Descending Atlanta Center
Sun 08:14:10 PM 34.3069 -83.6464 216° Southwest 365 420 13,900 -1,800 Descending Atlanta Center
Sun 08:15:10 PM 34.2300 -83.7172 217° Southwest 359 413 12,100 -1,000 Descending Atlanta Center
Sun 08:16:10 PM 34.1572 -83.7853 218° Southwest 359 413 11,900 -50 Descending Atlanta Center
Sun 08:17:10 PM 34.0906 -83.8431 216° Southwest 323 372 12,000 -478 Climbing Atlanta Center
Sun 08:18:03 PM 34.0500 -83.8833 219° Southwest 270 311 11,000 -1,121 Descending Atlanta TRACON
Sun 08:18:57 PM 33.9833 -83.9500 220° Southwest 277 319 10,000 -1,053 Descending Atlanta TRACON
Sun 08:19:57 PM 33.9167 -83.9667 192° South 295 339 9,000 -816 Descending Atlanta TRACON
Sun 08:21:02 PM 33.8333 -83.9833 189° South 288 331 8,300 -650 Descending Atlanta TRACON
Sun 08:21:57 PM 33.7500 -84.0000 189° South 278 320 7,700 -1,211 Descending Atlanta TRACON
Sun 08:22:56 PM 33.6833 -84.0500 212° Southwest 278 320 6,000 -908 Descending Atlanta TRACON
Sun 08:23:56 PM 33.6333 -84.1167 228° Southwest 261 300 5,900 -522 Descending Atlanta TRACON
Sun 08:24:51 PM 33.6333 -84.1667 270° West 218 251 5,000 -1,091 Descending Atlanta TRACON
Sun 08:25:57 PM 33.6333 -84.2500 270° West 201 231 3,700 -1,109 Descending Atlanta TRACON
Sun 08:26:50 PM 33.6333 -84.3000 270° West 177 204 2,800 -842 Descending Atlanta TRACON
Sun 08:27:51 PM 33.6333 -84.3500 270° West 133 153 2,100 -714 Descending Atlanta TRACON
Sun 08:28:56 PM 33.6333 -84.4000 270° West 127 146 1,300 -738 Descending Atlanta TRACON

Login

Don't have an account? Register now (free) for customized features, flight alerts, and more!